Time;durP1;ratioP1;P1;durP2;ratioP2;P2;SDS_P1;SDS_P2;PMS_P1;PMS_P2;Temp;Humidity;BMP_temperature;BMP_pressure;BME280_temperature;BME280_humidity;BME280_pressure;Samples;Min_cycle;Max_cycle;Signal;HPM_P1;HPM_P2
2023/06/07 00:00:05;;;;;;;22.07;12.50;;;;;;;;;;5070319;28;20059;-59
2023/06/07 00:02:31;;;;;;;31.97;12.70;;;;;;;;;;5070613;28;20051;-59
2023/06/07 00:04:57;;;;;;;25.03;11.93;;;;;;;;;;5068570;28;20044;-60
2023/06/07 00:07:23;;;;;;;25.23;12.40;;;;;;;;;;5069388;28;20040;-59
2023/06/07 00:09:50;;;;;;;26.13;13.00;;;;;;;;;;5068791;28;20499;-60
2023/06/07 00:12:16;;;;;;;24.50;13.67;;;;;;;;;;5070337;28;20051;-59
2023/06/07 00:14:43;;;;;;;32.37;14.17;;;;;;;;;;5067416;28;20040;-59
2023/06/07 00:17:09;;;;;;;30.10;14.10;;;;;;;;;;5068354;28;20056;-60
2023/06/07 00:19:35;;;;;;;28.77;15.20;;;;;;;;;;5069246;28;20054;-59
2023/06/07 00:22:02;;;;;;;30.83;14.97;;;;;;;;;;5069700;28;20803;-59
2023/06/07 00:24:28;;;;;;;33.20;14.93;;;;;;;;;;5068062;28;20478;-60
2023/06/07 00:26:54;;;;;;;36.33;13.47;;;;;;;;;;5068748;28;20463;-59
2023/06/07 00:29:20;;;;;;;33.73;14.20;;;;;;;;;;5069331;28;20044;-59
2023/06/07 00:31:46;;;;;;;32.53;14.23;;;;;;;;;;5069886;28;20047;-59
2023/06/07 00:34:12;;;;;;;26.47;13.80;;;;;;;;;;5067935;28;20422;-59
2023/06/07 00:36:38;;;;;;;30.90;13.47;;;;;;;;;;5066825;28;20124;-59
2023/06/07 00:39:05;;;;;;;31.57;14.13;;;;;;;;;;5067985;28;20132;-59
2023/06/07 00:41:31;;;;;;;30.70;12.63;;;;;;;;;;5069618;28;20048;-59
2023/06/07 00:43:57;;;;;;;28.40;14.30;;;;;;;;;;5067749;28;20040;-59
2023/06/07 00:46:25;;;;;;;28.07;14.17;;;;;;;;;;5068604;28;20088;-59
2023/06/07 00:48:52;;;;;;;39.23;15.70;;;;;;;;;;5068643;28;20048;-59
2023/06/07 00:51:18;;;;;;;33.87;14.97;;;;;;;;;;5067408;28;20036;-59
2023/06/07 00:53:46;;;;;;;24.70;13.20;;;;;;;;;;5068859;28;20449;-59
2023/06/07 00:56:12;;;;;;;31.33;13.97;;;;;;;;;;5068158;28;20491;-60
2023/06/07 00:58:38;;;;;;;35.73;15.00;;;;;;;;;;5067979;28;20351;-59
2023/06/07 01:01:06;;;;;;;33.90;14.70;;;;;;;;;;5066679;28;20450;-59
2023/06/07 01:03:34;;;;;;;33.90;14.90;;;;;;;;;;5068850;28;20457;-59
2023/06/07 01:06:03;;;;;;;36.17;13.93;;;;;;;;;;5069062;28;20127;-60
2023/06/07 01:08:30;;;;;;;36.77;13.73;;;;;;;;;;5051296;28;20491;-60
2023/06/07 01:10:57;;;;;;;30.63;13.93;;;;;;;;;;5067131;28;20051;-59
2023/06/07 01:13:24;;;;;;;29.10;14.07;;;;;;;;;;5066874;28;20125;-59
2023/06/07 01:15:51;;;;;;;27.97;12.47;;;;;;;;;;5067186;28;20135;-59
2023/06/07 01:18:18;;;;;;;23.47;12.03;;;;;;;;;;5068698;28;20469;-59
2023/06/07 01:20:47;;;;;;;27.73;12.63;;;;;;;;;;5068368;28;20084;-59
2023/06/07 01:23:14;;;;;;;39.10;15.17;;;;;;;;;;5068813;28;20048;-59
2023/06/07 01:25:40;;;;;;;36.03;15.63;;;;;;;;;;5067888;28;20074;-59
2023/06/07 01:28:06;;;;;;;29.10;13.83;;;;;;;;;;5065211;28;20090;-59
2023/06/07 01:30:32;;;;;;;30.60;13.50;;;;;;;;;;5066071;28;20040;-59
2023/06/07 01:33:04;;;;;;;33.73;13.20;;;;;;;;;;5067470;28;20163;-59
2023/06/07 01:35:31;;;;;;;33.43;14.20;;;;;;;;;;5068346;28;20098;-60
2023/06/07 01:37:57;;;;;;;24.10;10.97;;;;;;;;;;5067776;28;20048;-60
2023/06/07 01:40:23;;;;;;;22.87;11.00;;;;;;;;;;5067381;28;20119;-60
2023/06/07 01:42:50;;;;;;;34.23;12.20;;;;;;;;;;5067553;28;20064;-59
2023/06/07 01:45:16;;;;;;;25.43;12.43;;;;;;;;;;5066971;28;20084;-59
2023/06/07 01:47:42;;;;;;;29.23;11.77;;;;;;;;;;5067400;28;20432;-60
2023/06/07 01:50:09;;;;;;;35.20;13.13;;;;;;;;;;5068043;28;20071;-60
2023/06/07 01:52:35;;;;;;;24.03;11.90;;;;;;;;;;5068464;28;20052;-59
2023/06/07 01:55:02;;;;;;;28.67;12.87;;;;;;;;;;5066699;28;20044;-59
2023/06/07 01:57:39;;;;;;;33.30;12.70;;;;;;;;;;5066800;28;20048;-59
2023/06/07 02:00:09;;;;;;;32.73;12.70;;;;;;;;;;5066754;28;20533;-59
2023/06/07 02:02:39;;;;;;;29.40;13.17;;;;;;;;;;5068035;28;20086;-60
2023/06/07 02:05:09;;;;;;;35.77;14.43;;;;;;;;;;5068216;28;20048;-60
2023/06/07 02:07:40;;;;;;;35.33;14.93;;;;;;;;;;5068427;28;20040;-59
2023/06/07 02:10:08;;;;;;;37.20;15.30;;;;;;;;;;5066716;28;20415;-60
2023/06/07 02:12:34;;;;;;;34.07;15.90;;;;;;;;;;5068370;28;20524;-60
2023/06/07 02:15:01;;;;;;;28.47;14.47;;;;;;;;;;5067934;28;20047;-59
2023/06/07 02:17:28;;;;;;;37.53;15.33;;;;;;;;;;5067219;28;20055;-60
2023/06/07 02:19:54;;;;;;;32.13;14.87;;;;;;;;;;5055501;28;20099;-60
2023/06/07 02:22:20;;;;;;;28.27;13.83;;;;;;;;;;5066295;28;20060;-59
2023/06/07 02:24:47;;;;;;;32.27;15.47;;;;;;;;;;5067612;28;20570;-60
2023/06/07 02:27:13;;;;;;;39.00;14.90;;;;;;;;;;5068123;28;20056;-60
2023/06/07 02:29:39;;;;;;;29.80;15.70;;;;;;;;;;5068142;28;20076;-59
2023/06/07 02:32:05;;;;;;;32.97;14.43;;;;;;;;;;5069091;28;20465;-60
2023/06/07 02:34:34;;;;;;;33.87;15.07;;;;;;;;;;5071299;28;20049;-60
2023/06/07 02:37:00;;;;;;;37.10;15.87;;;;;;;;;;5071737;28;20059;-60
2023/06/07 02:39:26;;;;;;;41.40;16.10;;;;;;;;;;5072063;28;20048;-60
2023/06/07 02:41:52;;;;;;;37.27;13.90;;;;;;;;;;5070878;28;20040;-60
2023/06/07 02:44:18;;;;;;;35.20;15.20;;;;;;;;;;5070938;28;20044;-60
2023/06/07 02:46:44;;;;;;;34.10;15.07;;;;;;;;;;5070121;28;20045;-60
2023/06/07 02:49:10;;;;;;;43.97;15.47;;;;;;;;;;5072118;28;20406;-59
2023/06/07 02:51:37;;;;;;;34.00;13.83;;;;;;;;;;5071878;28;20340;-60
2023/06/07 02:54:03;;;;;;;37.33;15.47;;;;;;;;;;5072257;28;20045;-60
2023/06/07 02:56:32;;;;;;;33.60;15.03;;;;;;;;;;5071059;28;20445;-60
2023/06/07 02:58:58;;;;;;;36.27;16.47;;;;;;;;;;5070264;28;20494;-59
2023/06/07 03:01:27;;;;;;;32.53;14.80;;;;;;;;;;5071025;28;20098;-59
2023/06/07 03:03:53;;;;;;;36.80;15.30;;;;;;;;;;5058219;28;20107;-60
2023/06/07 03:06:19;;;;;;;31.67;15.80;;;;;;;;;;5064348;28;20048;-60
2023/06/07 03:08:45;;;;;;;40.03;15.97;;;;;;;;;;5070546;28;20048;-60
2023/06/07 03:11:11;;;;;;;33.80;14.90;;;;;;;;;;5070524;28;20052;-60
2023/06/07 03:13:37;;;;;;;33.20;14.50;;;;;;;;;;5070960;28;20477;-59
2023/06/07 03:16:03;;;;;;;38.33;15.83;;;;;;;;;;5071145;28;20415;-60
2023/06/07 03:18:29;;;;;;;35.40;15.40;;;;;;;;;;5070971;28;20044;-60
2023/06/07 03:20:55;;;;;;;34.13;15.33;;;;;;;;;;5071444;28;20422;-60
2023/06/07 03:23:21;;;;;;;30.67;13.97;;;;;;;;;;5070921;28;20080;-60
2023/06/07 03:25:48;;;;;;;28.93;14.57;;;;;;;;;;5070883;28;20101;-60
2023/06/07 03:28:14;;;;;;;36.97;14.87;;;;;;;;;;5070193;28;20113;-60
2023/06/07 03:30:41;;;;;;;33.70;12.53;;;;;;;;;;5070485;28;20048;-60
2023/06/07 03:33:07;;;;;;;28.63;13.63;;;;;;;;;;5070407;28;20506;-60
2023/06/07 03:35:33;;;;;;;28.83;11.43;;;;;;;;;;5070641;28;20070;-60
2023/06/07 03:37:59;;;;;;;37.57;12.70;;;;;;;;;;5069862;28;20047;-60
2023/06/07 03:40:25;;;;;;;31.97;13.20;;;;;;;;;;5068712;28;20494;-60
2023/06/07 03:42:51;;;;;;;30.87;13.03;;;;;;;;;;5069614;28;20045;-60
2023/06/07 03:45:17;;;;;;;26.80;12.87;;;;;;;;;;5070574;28;20520;-60
2023/06/07 03:47:43;;;;;;;37.60;14.13;;;;;;;;;;5070608;28;20044;-60
2023/06/07 03:50:09;;;;;;;35.20;13.03;;;;;;;;;;5070037;28;20052;-60
2023/06/07 03:52:35;;;;;;;37.93;12.13;;;;;;;;;;5069613;28;20040;-60
2023/06/07 03:55:02;;;;;;;28.23;13.43;;;;;;;;;;5070219;28;20483;-60
2023/06/07 03:57:28;;;;;;;29.53;12.43;;;;;;;;;;5070273;28;20053;-60
2023/06/07 03:59:57;;;;;;;30.70;13.33;;;;;;;;;;5066623;28;20499;-60
2023/06/07 04:02:23;;;;;;;30.47;12.00;;;;;;;;;;5069835;28;20447;-60
2023/06/07 04:04:49;;;;;;;25.50;12.23;;;;;;;;;;5070958;28;20121;-60
2023/06/07 04:07:16;;;;;;;26.17;12.40;;;;;;;;;;5070342;28;20052;-60
2023/06/07 04:09:42;;;;;;;28.37;12.20;;;;;;;;;;5070643;28;20048;-60
2023/06/07 04:12:08;;;;;;;29.47;12.00;;;;;;;;;;5066961;28;20581;-60
2023/06/07 04:14:34;;;;;;;29.87;12.03;;;;;;;;;;5068487;28;20075;-60
2023/06/07 04:17:01;;;;;;;27.87;10.87;;;;;;;;;;5067732;28;20044;-60
2023/06/07 04:19:27;;;;;;;33.77;11.97;;;;;;;;;;5068824;28;20056;-60
2023/06/07 04:21:53;;;;;;;24.47;11.40;;;;;;;;;;5069834;28;20550;-60
2023/06/07 04:24:19;;;;;;;26.50;10.93;;;;;;;;;;5070023;28;20056;-60
2023/06/07 04:26:47;;;;;;;30.20;10.83;;;;;;;;;;5051794;28;20048;-60
2023/06/07 04:29:14;;;;;;;29.20;10.57;;;;;;;;;;5069762;28;20144;-60
2023/06/07 04:31:41;;;;;;;27.40;10.60;;;;;;;;;;5068665;28;20548;-60
2023/06/07 04:34:09;;;;;;;21.67;9.87;;;;;;;;;;5068813;28;20670;-60
2023/06/07 04:36:39;;;;;;;26.93;11.17;;;;;;;;;;5069224;28;20080;-60
2023/06/07 04:39:05;;;;;;;25.93;9.57;;;;;;;;;;5069558;28;20102;-60
2023/06/07 04:41:33;;;;;;;25.67;9.50;;;;;;;;;;5069643;28;20102;-60
2023/06/07 04:44:03;;;;;;;22.13;9.23;;;;;;;;;;5069418;28;20048;-60
2023/06/07 04:46:30;;;;;;;27.63;10.00;;;;;;;;;;5067410;28;20045;-60
2023/06/07 04:48:58;;;;;;;31.43;10.57;;;;;;;;;;5067226;28;20055;-60
2023/06/07 04:51:26;;;;;;;22.40;8.93;;;;;;;;;;5067073;28;20119;-60
2023/06/07 04:53:58;;;;;;;23.70;9.43;;;;;;;;;;5069188;28;20049;-60
2023/06/07 04:56:25;;;;;;;24.40;10.70;;;;;;;;;;5068266;28;20106;-60
2023/06/07 04:58:52;;;;;;;24.70;9.53;;;;;;;;;;5069051;28;20055;-60
2023/06/07 05:01:18;;;;;;;26.37;9.50;;;;;;;;;;5069331;28;20056;-60
2023/06/07 05:03:44;;;;;;;21.77;8.97;;;;;;;;;;5068228;28;20055;-60
2023/06/07 05:06:11;;;;;;;23.10;8.67;;;;;;;;;;5069474;28;20213;-60
2023/06/07 05:08:37;;;;;;;18.33;9.03;;;;;;;;;;5069084;28;20540;-60
2023/06/07 05:11:03;;;;;;;22.63;8.43;;;;;;;;;;5068062;28;20052;-61
2023/06/07 05:13:29;;;;;;;19.80;7.87;;;;;;;;;;5068818;28;20247;-60
2023/06/07 05:15:55;;;;;;;21.90;8.57;;;;;;;;;;5067287;28;20044;-60
2023/06/07 05:18:21;;;;;;;20.50;7.17;;;;;;;;;;5068753;28;20044;-60
2023/06/07 05:20:47;;;;;;;19.87;6.43;;;;;;;;;;5050559;28;20453;-60
2023/06/07 05:23:17;;;;;;;19.87;6.07;;;;;;;;;;5069135;28;20040;-60
2023/06/07 05:25:46;;;;;;;22.40;6.73;;;;;;;;;;5068815;28;20041;-60
2023/06/07 05:28:12;;;;;;;17.07;5.40;;;;;;;;;;5067289;28;20051;-60
2023/06/07 05:30:39;;;;;;;15.30;5.00;;;;;;;;;;5065926;28;20049;-60
2023/06/07 05:33:06;;;;;;;15.93;6.07;;;;;;;;;;5065260;28;20056;-60
2023/06/07 05:35:32;;;;;;;19.37;6.20;;;;;;;;;;5067354;28;20054;-61
2023/06/07 05:37:58;;;;;;;21.80;6.17;;;;;;;;;;5068321;28;20068;-60
2023/06/07 05:40:24;;;;;;;16.43;5.20;;;;;;;;;;5068387;28;20044;-61
2023/06/07 05:42:50;;;;;;;21.17;5.30;;;;;;;;;;5067861;28;20059;-60
2023/06/07 05:45:19;;;;;;;14.37;5.17;;;;;;;;;;5068177;28;20052;-60
2023/06/07 05:47:45;;;;;;;21.60;5.50;;;;;;;;;;5068266;28;20044;-60
2023/06/07 05:50:12;;;;;;;16.87;4.97;;;;;;;;;;5068380;28;20119;-61
2023/06/07 05:52:40;;;;;;;18.77;4.97;;;;;;;;;;5068012;28;20392;-60
2023/06/07 05:55:06;;;;;;;19.37;6.23;;;;;;;;;;5067663;28;20497;-59
2023/06/07 05:57:32;;;;;;;14.37;5.23;;;;;;;;;;5068081;28;20059;-60
2023/06/07 05:59:59;;;;;;;23.20;5.20;;;;;;;;;;5068172;28;20051;-60
2023/06/07 06:02:26;;;;;;;18.00;5.43;;;;;;;;;;5067349;28;20041;-60
2023/06/07 06:04:52;;;;;;;19.10;5.13;;;;;;;;;;5067658;28;20087;-61
2023/06/07 06:07:19;;;;;;;12.57;4.93;;;;;;;;;;5067088;28;20054;-61
2023/06/07 06:09:45;;;;;;;19.20;5.83;;;;;;;;;;5068197;28;20106;-60
2023/06/07 06:12:11;;;;;;;10.17;4.83;;;;;;;;;;5067989;28;20048;-61
2023/06/07 06:14:38;;;;;;;20.40;5.97;;;;;;;;;;5068041;28;20056;-60
2023/06/07 06:17:05;;;;;;;16.70;5.00;;;;;;;;;;5067790;28;20048;-61
2023/06/07 06:19:31;;;;;;;13.77;5.27;;;;;;;;;;5067537;28;20049;-61
2023/06/07 06:21:57;;;;;;;18.30;5.37;;;;;;;;;;5067354;28;20566;-61
2023/06/07 06:24:23;;;;;;;16.43;4.97;;;;;;;;;;5067695;28;20036;-61
2023/06/07 06:26:50;;;;;;;18.33;4.70;;;;;;;;;;5067680;28;20043;-61
2023/06/07 06:29:17;;;;;;;16.83;4.47;;;;;;;;;;5065886;28;20418;-61
2023/06/07 06:31:43;;;;;;;17.40;4.73;;;;;;;;;;5067442;28;20040;-61
2023/06/07 06:34:10;;;;;;;13.13;4.23;;;;;;;;;;5067839;28;20044;-61
2023/06/07 06:36:36;;;;;;;11.87;4.00;;;;;;;;;;5067651;28;20076;-60
2023/06/07 06:39:03;;;;;;;13.37;4.10;;;;;;;;;;5067132;28;20110;-61
2023/06/07 06:41:30;;;;;;;12.43;4.63;;;;;;;;;;5067855;28;20055;-61
2023/06/07 06:43:56;;;;;;;16.27;4.17;;;;;;;;;;5066820;28;20072;-60
2023/06/07 06:46:22;;;;;;;16.63;4.90;;;;;;;;;;5067509;28;20048;-60
2023/06/07 06:48:48;;;;;;;21.60;4.97;;;;;;;;;;5067887;28;20052;-60
2023/06/07 06:51:14;;;;;;;15.33;5.00;;;;;;;;;;5067627;28;20049;-60
2023/06/07 06:53:41;;;;;;;18.93;4.97;;;;;;;;;;5066317;28;20103;-61
2023/06/07 06:56:07;;;;;;;12.03;4.47;;;;;;;;;;5066125;28;20514;-60
2023/06/07 06:58:34;;;;;;;15.33;4.17;;;;;;;;;;5066492;28;20051;-61
2023/06/07 07:01:02;;;;;;;16.77;4.70;;;;;;;;;;5067314;28;20053;-61
2023/06/07 07:03:28;;;;;;;19.77;4.57;;;;;;;;;;5067719;28;20422;-60
2023/06/07 07:05:54;;;;;;;12.63;4.43;;;;;;;;;;5067328;28;20044;-60
2023/06/07 07:08:20;;;;;;;18.93;4.93;;;;;;;;;;5067576;28;20084;-61
2023/06/07 07:10:47;;;;;;;14.00;4.03;;;;;;;;;;5067028;28;20044;-61
2023/06/07 07:13:13;;;;;;;13.33;4.37;;;;;;;;;;5067567;28;20125;-60
2023/06/07 07:15:39;;;;;;;14.50;4.90;;;;;;;;;;5067396;28;20049;-60
2023/06/07 07:18:07;;;;;;;15.77;5.60;;;;;;;;;;5066545;28;20048;-60
2023/06/07 07:20:33;;;;;;;12.73;4.17;;;;;;;;;;5069458;28;20414;-61
2023/06/07 07:23:01;;;;;;;12.83;3.90;;;;;;;;;;5070984;28;20063;-60
2023/06/07 07:25:28;;;;;;;17.13;4.67;;;;;;;;;;5069738;28;20521;-61
2023/06/07 07:27:54;;;;;;;22.57;5.67;;;;;;;;;;5069890;28;20127;-60
2023/06/07 07:30:20;;;;;;;15.17;3.80;;;;;;;;;;5071153;28;20048;-60
2023/06/07 07:32:46;;;;;;;14.43;3.93;;;;;;;;;;5070304;28;20059;-61
2023/06/07 07:35:12;;;;;;;15.37;4.23;;;;;;;;;;5070447;28;20049;-61
2023/06/07 07:37:39;;;;;;;13.37;3.93;;;;;;;;;;5070908;28;20147;-61
2023/06/07 07:40:08;;;;;;;16.90;5.50;;;;;;;;;;5066739;28;20053;-61
2023/06/07 07:42:34;;;;;;;13.53;3.70;;;;;;;;;;5050474;28;20045;-60
2023/06/07 07:45:00;;;;;;;13.20;3.60;;;;;;;;;;5065092;28;20110;-60
2023/06/07 07:47:26;;;;;;;7.83;2.90;;;;;;;;;;5067725;28;20072;-61
2023/06/07 07:49:52;;;;;;;14.63;4.27;;;;;;;;;;5067069;28;20041;-60
2023/06/07 07:52:18;;;;;;;12.90;3.47;;;;;;;;;;5068495;28;20127;-60
2023/06/07 07:54:44;;;;;;;11.27;3.53;;;;;;;;;;5069680;28;20140;-60
2023/06/07 07:57:10;;;;;;;11.77;3.20;;;;;;;;;;5069505;28;20101;-60
2023/06/07 07:59:36;;;;;;;11.30;3.63;;;;;;;;;;5070667;28;20052;-60
2023/06/07 08:02:03;;;;;;;13.10;3.70;;;;;;;;;;5067507;28;20048;-60
2023/06/07 08:04:30;;;;;;;10.90;3.27;;;;;;;;;;5069843;28;20060;-60
2023/06/07 08:06:56;;;;;;;10.17;3.17;;;;;;;;;;5070055;28;20123;-60
2023/06/07 08:09:22;;;;;;;12.23;3.10;;;;;;;;;;5068659;28;20044;-60
2023/06/07 08:11:49;;;;;;;10.93;3.33;;;;;;;;;;5069579;28;20131;-60
2023/06/07 08:14:15;;;;;;;10.37;3.27;;;;;;;;;;5068588;28;20044;-60
2023/06/07 08:16:42;;;;;;;13.17;3.70;;;;;;;;;;5068426;28;20415;-60
2023/06/07 08:19:08;;;;;;;13.03;3.87;;;;;;;;;;5069182;28;20067;-61
2023/06/07 08:21:35;;;;;;;12.60;4.60;;;;;;;;;;5070005;28;20456;-61
2023/06/07 08:24:01;;;;;;;10.50;3.53;;;;;;;;;;5069819;28;20056;-61
2023/06/07 08:26:27;;;;;;;10.37;3.67;;;;;;;;;;5067402;28;20037;-61
2023/06/07 08:28:53;;;;;;;8.77;3.90;;;;;;;;;;5061261;28;20045;-61
2023/06/07 08:31:19;;;;;;;11.47;3.97;;;;;;;;;;5050620;28;20497;-61
2023/06/07 08:33:46;;;;;;;12.00;3.43;;;;;;;;;;5069813;28;20119;-61
2023/06/07 08:36:12;;;;;;;14.67;3.70;;;;;;;;;;5069165;28;20045;-60
2023/06/07 08:38:43;;;;;;;10.97;3.83;;;;;;;;;;5058895;28;20044;-61
2023/06/07 08:41:10;;;;;;;11.80;3.17;;;;;;;;;;5051390;28;20067;-61
2023/06/07 08:43:37;;;;;;;10.23;3.43;;;;;;;;;;5069834;28;20040;-61
2023/06/07 08:46:05;;;;;;;10.63;3.30;;;;;;;;;;5060244;28;20045;-61
2023/06/07 08:48:34;;;;;;;9.57;3.63;;;;;;;;;;5069540;28;20505;-61
2023/06/07 08:51:01;;;;;;;12.60;3.57;;;;;;;;;;5068994;28;20049;-61
2023/06/07 08:53:30;;;;;;;10.20;3.50;;;;;;;;;;5068657;28;20052;-61
2023/06/07 08:55:57;;;;;;;9.07;2.97;;;;;;;;;;5059831;28;20581;-61
2023/06/07 08:58:24;;;;;;;14.43;3.90;;;;;;;;;;5050449;28;20056;-60
2023/06/07 09:00:51;;;;;;;9.87;3.70;;;;;;;;;;5063460;28;20558;-61
2023/06/07 09:03:17;;;;;;;7.90;3.57;;;;;;;;;;5067153;28;20106;-61
2023/06/07 09:05:43;;;;;;;9.70;3.60;;;;;;;;;;5056385;28;20048;-61
2023/06/07 09:08:09;;;;;;;12.40;3.40;;;;;;;;;;5056494;28;20040;-61
2023/06/07 09:10:35;;;;;;;8.07;2.73;;;;;;;;;;5068592;28;20056;-61
2023/06/07 09:13:01;;;;;;;10.93;4.00;;;;;;;;;;5067572;28;20421;-61
2023/06/07 09:15:28;;;;;;;10.63;3.40;;;;;;;;;;5068092;28;20039;-61
2023/06/07 09:17:54;;;;;;;9.50;3.30;;;;;;;;;;5065994;28;20056;-61
2023/06/07 09:20:20;;;;;;;9.13;3.53;;;;;;;;;;5067939;28;20131;-61
2023/06/07 09:22:56;;;;;;;11.30;3.38;;;;;;;;;;5067364;28;20412;-62
2023/06/07 09:25:23;;;;;;;9.80;3.88;;;;;;;;;;5050389;28;20056;-61
2023/06/07 09:27:52;;;;;;;13.20;4.53;;;;;;;;;;5063907;28;20040;-61
2023/06/07 09:30:18;;;;;;;11.18;3.55;;;;;;;;;;5068622;28;20052;-61
2023/06/07 09:32:44;;;;;;;11.73;3.95;;;;;;;;;;5067869;28;20567;-61
2023/06/07 09:35:14;;;;;;;9.35;4.13;;;;;;;;;;5068787;28;20555;-61
2023/06/07 09:37:47;;;;;;;12.90;3.45;;;;;;;;;;5067659;28;20052;-61
2023/06/07 09:40:13;;;;;;;13.98;4.28;;;;;;;;;;5066595;28;20048;-61
2023/06/07 09:42:40;;;;;;;9.95;3.65;;;;;;;;;;5060940;28;20052;-61
2023/06/07 09:45:13;;;;;;;11.23;4.43;;;;;;;;;;5062653;28;20443;-61
2023/06/07 09:47:41;;;;;;;11.25;4.30;;;;;;;;;;5059442;28;20048;-62
2023/06/07 09:50:08;;;;;;;10.05;4.28;;;;;;;;;;5052135;28;20077;-61
2023/06/07 09:52:34;;;;;;;11.63;3.70;;;;;;;;;;5068691;28;20056;-62
2023/06/07 09:55:02;;;;;;;11.55;4.40;;;;;;;;;;5067872;28;20514;-62
2023/06/07 09:57:32;;;;;;;11.00;4.07;;;;;;;;;;5067978;28;20052;-61
2023/06/07 10:00:00;;;;;;;8.18;4.03;;;;;;;;;;5067855;28;20406;-61
2023/06/07 10:02:30;;;;;;;8.73;3.88;;;;;;;;;;5068102;28;20502;-61
2023/06/07 10:04:57;;;;;;;11.10;4.70;;;;;;;;;;5067377;28;20060;-61
2023/06/07 10:07:23;;;;;;;11.10;4.28;;;;;;;;;;5067936;28;20094;-62
2023/06/07 10:09:54;;;;;;;12.65;5.05;;;;;;;;;;5068168;28;20033;-61
2023/06/07 10:12:22;;;;;;;8.10;4.38;;;;;;;;;;5064727;28;20558;-61
2023/06/07 10:14:48;;;;;;;10.95;4.05;;;;;;;;;;5066350;28;20135;-61
2023/06/07 10:17:16;;;;;;;9.50;4.85;;;;;;;;;;5068446;28;20048;-62
2023/06/07 10:19:44;;;;;;;10.23;4.47;;;;;;;;;;5067641;28;20044;-61
2023/06/07 10:22:15;;;;;;;11.18;5.25;;;;;;;;;;5067737;28;20533;-61
2023/06/07 10:24:52;;;;;;;10.63;4.65;;;;;;;;;;5068142;28;20048;-62
2023/06/07 10:27:22;;;;;;;10.85;5.07;;;;;;;;;;5067473;28;20053;-61
2023/06/07 10:30:10;;;;;;;12.80;5.50;;;;;;;;;;5067935;28;20131;-62
2023/06/07 10:32:38;;;;;;;9.98;4.43;;;;;;;;;;5068579;28;20044;-62
2023/06/07 10:35:06;;;;;;;11.52;4.88;;;;;;;;;;5066744;28;20067;-62
2023/06/07 10:37:33;;;;;;;8.80;4.35;;;;;;;;;;5067828;28;20056;-62
2023/06/07 10:40:05;;;;;;;6.93;4.30;;;;;;;;;;5066912;28;20471;-61
2023/06/07 10:42:33;;;;;;;11.05;4.30;;;;;;;;;;5068276;28;20410;-62
2023/06/07 10:44:59;;;;;;;10.88;4.90;;;;;;;;;;5067421;28;20095;-61
2023/06/07 10:47:25;;;;;;;7.22;3.78;;;;;;;;;;5068213;28;20041;-62
2023/06/07 10:49:52;;;;;;;11.80;4.63;;;;;;;;;;5049791;28;20499;-61
2023/06/07 10:52:18;;;;;;;10.43;4.13;;;;;;;;;;5067858;28;20045;-61
2023/06/07 10:54:45;;;;;;;14.10;5.85;;;;;;;;;;5071953;28;20079;-61
2023/06/07 10:57:11;;;;;;;11.73;4.60;;;;;;;;;;5071247;28;20118;-61
2023/06/07 10:59:38;;;;;;;8.02;4.00;;;;;;;;;;5072315;28;20398;-61
2023/06/07 11:02:24;;;;;;;10.35;4.70;;;;;;;;;;5069439;28;20036;-61
2023/06/07 11:05:00;;;;;;;12.52;4.93;;;;;;;;;;5071519;28;20054;-61
2023/06/07 11:07:35;;;;;;;10.38;5.15;;;;;;;;;;5070353;28;20075;-62
2023/06/07 11:10:04;;;;;;;13.27;4.63;;;;;;;;;;5071523;28;20349;-62
2023/06/07 11:12:40;;;;;;;9.15;5.35;;;;;;;;;;5070219;28;20048;-61
2023/06/07 11:15:24;;;;;;;9.15;4.60;;;;;;;;;;5067583;28;20498;-61
2023/06/07 11:17:53;;;;;;;9.40;4.38;;;;;;;;;;5070980;28;20170;-62
2023/06/07 11:20:37;;;;;;;10.70;4.22;;;;;;;;;;5071320;28;20494;-62
2023/06/07 11:23:23;;;;;;;13.07;4.43;;;;;;;;;;5070949;28;20056;-61
2023/06/07 11:25:51;;;;;;;9.10;4.38;;;;;;;;;;5070713;28;20566;-59
2023/06/07 11:28:21;;;;;;;9.57;4.53;;;;;;;;;;5070435;28;20056;-60
2023/06/07 11:30:48;;;;;;;7.40;3.95;;;;;;;;;;5071255;28;20052;-59
2023/06/07 11:33:18;;;;;;;9.18;4.35;;;;;;;;;;5070572;28;20056;-60
2023/06/07 11:35:44;;;;;;;11.45;4.30;;;;;;;;;;5070564;28;20417;-60
2023/06/07 11:38:10;;;;;;;9.70;4.05;;;;;;;;;;5070574;28;20482;-60
2023/06/07 11:40:36;;;;;;;10.60;4.57;;;;;;;;;;5070329;28;20056;-60
2023/06/07 11:43:03;;;;;;;9.52;4.25;;;;;;;;;;5070914;28;20047;-60
2023/06/07 11:45:32;;;;;;;9.95;4.18;;;;;;;;;;5070402;28;20589;-60
2023/06/07 11:48:01;;;;;;;9.65;4.38;;;;;;;;;;5070027;28;20045;-60
2023/06/07 11:50:27;;;;;;;9.52;3.97;;;;;;;;;;5070911;28;20045;-60
2023/06/07 11:52:53;;;;;;;9.80;4.22;;;;;;;;;;5070082;28;20081;-60
2023/06/07 11:55:20;;;;;;;8.43;4.57;;;;;;;;;;5070055;28;20127;-60
2023/06/07 11:57:51;;;;;;;7.72;3.80;;;;;;;;;;5070259;28;20048;-60
2023/06/07 12:00:20;;;;;;;9.38;4.20;;;;;;;;;;5070147;28;20049;-60
2023/06/07 12:02:47;;;;;;;8.55;4.20;;;;;;;;;;5069926;28;20521;-60
2023/06/07 12:05:13;;;;;;;8.57;4.13;;;;;;;;;;5070124;28;20052;-60
2023/06/07 12:07:40;;;;;;;9.10;3.72;;;;;;;;;;5069832;28;20048;-60
2023/06/07 12:10:09;;;;;;;7.30;4.20;;;;;;;;;;5070034;28;20542;-60
2023/06/07 12:12:35;;;;;;;10.50;3.80;;;;;;;;;;5070060;28;20469;-60
2023/06/07 12:15:02;;;;;;;9.00;4.43;;;;;;;;;;5069972;28;20051;-60
2023/06/07 12:17:35;;;;;;;9.30;4.60;;;;;;;;;;5069542;28;20076;-60
2023/06/07 12:20:08;;;;;;;8.80;4.03;;;;;;;;;;5069753;28;20084;-60
2023/06/07 12:22:34;;;;;;;7.63;4.50;;;;;;;;;;5069313;28;20044;-60
2023/06/07 12:25:09;;;;;;;9.75;4.43;;;;;;;;;;5069867;28;20195;-60
2023/06/07 12:27:37;;;;;;;9.13;3.85;;;;;;;;;;5069776;28;20498;-60
2023/06/07 12:30:04;;;;;;;9.82;4.07;;;;;;;;;;5069431;28;20131;-60
2023/06/07 12:32:31;;;;;;;8.00;4.20;;;;;;;;;;5069000;28;20064;-60
2023/06/07 12:35:01;;;;;;;9.60;3.80;;;;;;;;;;5069451;28;20052;-60
2023/06/07 12:37:28;;;;;;;8.18;3.72;;;;;;;;;;5069915;28;20067;-60
2023/06/07 12:39:54;;;;;;;7.93;4.40;;;;;;;;;;5068921;28;20115;-60
2023/06/07 12:42:20;;;;;;;9.27;4.15;;;;;;;;;;5069381;28;20512;-60
2023/06/07 12:44:47;;;;;;;8.63;4.18;;;;;;;;;;5069321;28;20048;-60
2023/06/07 12:47:13;;;;;;;12.15;4.57;;;;;;;;;;5068975;28;20503;-60
2023/06/07 12:49:42;;;;;;;8.25;3.97;;;;;;;;;;5069394;28;20048;-60
2023/06/07 12:52:08;;;;;;;11.27;4.38;;;;;;;;;;5068827;28;20107;-60
2023/06/07 12:54:34;;;;;;;8.13;4.03;;;;;;;;;;5069259;28;20071;-60
2023/06/07 12:57:00;;;;;;;9.60;4.55;;;;;;;;;;5069172;28;20056;-60
2023/06/07 12:59:26;;;;;;;7.70;4.53;;;;;;;;;;5068757;28;20414;-60
2023/06/07 13:01:52;;;;;;;8.65;3.85;;;;;;;;;;5068358;28;20044;-61
2023/06/07 13:04:18;;;;;;;14.43;5.18;;;;;;;;;;5066836;28;20051;-60
2023/06/07 13:06:44;;;;;;;8.63;4.20;;;;;;;;;;5067272;28;20040;-60
2023/06/07 13:09:11;;;;;;;8.23;3.97;;;;;;;;;;5068108;28;20462;-60
2023/06/07 13:11:37;;;;;;;7.50;3.45;;;;;;;;;;5069176;28;20162;-60
2023/06/07 13:14:03;;;;;;;8.15;3.60;;;;;;;;;;5067676;28;20117;-60
2023/06/07 13:16:30;;;;;;;7.03;3.70;;;;;;;;;;5068633;28;20239;-60
2023/06/07 13:18:56;;;;;;;8.98;4.00;;;;;;;;;;5068344;28;20048;-60
2023/06/07 13:21:22;;;;;;;9.07;3.88;;;;;;;;;;5068306;28;20044;-60
2023/06/07 13:23:48;;;;;;;10.13;3.63;;;;;;;;;;5069026;28;20059;-60
2023/06/07 13:26:15;;;;;;;8.77;3.72;;;;;;;;;;5068923;28;20040;-60
2023/06/07 13:28:45;;;;;;;10.07;3.70;;;;;;;;;;5068201;28;20045;-60
2023/06/07 13:31:14;;;;;;;10.52;3.90;;;;;;;;;;5048729;28;20060;-60
2023/06/07 13:33:41;;;;;;;9.00;3.85;;;;;;;;;;5048557;28;20045;-60
2023/06/07 13:36:07;;;;;;;10.23;3.92;;;;;;;;;;5058839;28;20044;-60
2023/06/07 13:38:34;;;;;;;8.73;4.00;;;;;;;;;;5068372;28;20572;-60
2023/06/07 13:41:00;;;;;;;6.80;3.53;;;;;;;;;;5064574;28;20040;-60
2023/06/07 13:43:27;;;;;;;9.30;4.63;;;;;;;;;;5066512;28;20044;-60
2023/06/07 13:45:53;;;;;;;9.07;4.00;;;;;;;;;;5068151;28;20491;-60
2023/06/07 13:48:22;;;;;;;9.75;3.70;;;;;;;;;;5068355;28;20055;-61
2023/06/07 13:50:51;;;;;;;6.72;2.85;;;;;;;;;;5068497;28;20048;-60
2023/06/07 13:53:18;;;;;;;7.93;3.42;;;;;;;;;;5067844;28;20093;-60
2023/06/07 13:55:47;;;;;;;8.43;3.80;;;;;;;;;;5050050;28;20097;-60
2023/06/07 13:58:14;;;;;;;6.05;3.05;;;;;;;;;;5067415;28;21169;-61
2023/06/07 14:00:41;;;;;;;9.50;3.50;;;;;;;;;;5048097;28;20045;-60
2023/06/07 14:03:07;;;;;;;10.10;3.97;;;;;;;;;;5048176;28;20503;-61
2023/06/07 14:05:34;;;;;;;8.70;3.70;;;;;;;;;;5047981;28;20399;-61
2023/06/07 14:08:01;;;;;;;6.50;3.40;;;;;;;;;;5048020;28;20495;-62
2023/06/07 14:10:28;;;;;;;8.05;3.95;;;;;;;;;;5047538;28;20080;-61
2023/06/07 14:12:57;;;;;;;7.18;3.80;;;;;;;;;;5061904;28;20076;-61
2023/06/07 14:15:23;;;;;;;15.30;4.82;;;;;;;;;;5068048;28;20076;-62
2023/06/07 14:17:49;;;;;;;11.48;3.95;;;;;;;;;;5067855;28;20044;-62
2023/06/07 14:20:15;;;;;;;10.38;3.97;;;;;;;;;;5068058;28;20390;-62
2023/06/07 14:22:41;;;;;;;9.23;4.05;;;;;;;;;;5067597;28;20040;-62
2023/06/07 14:25:08;;;;;;;8.73;4.18;;;;;;;;;;5067834;28;20045;-62
2023/06/07 14:27:34;;;;;;;8.55;3.40;;;;;;;;;;5068271;28;20040;-62